MMLO

Del Bajío International Airport

Airport
ICAO code
MMLO
IATA Code
BJX
Summary
ICAO Region
CARSAM
ICAO Territory
Location

Silao, Guanajuato

Serving
Leon
Elevation
5956 ft
Coordinates
20° 59' 36" N , 101° 28' 51" W
KCC
Metar
MMLO 231048Z 00000KT 8SM FEW250 21/07 A3015 RMK 8/001

Del Bajío International Airport, officially known as Aeropuerto Internacional de Guanajuato, is an international airport located in Silao, Guanajuato, Mexico.

Climatology

Semi-arid climate (Köppen climate classification BSk)

Runways

Designator Length Width Surface Rops
13/31 3499 45 ASP Yes/Yes

Airport map

Aerial View

SKYbrary Partners:

Safety knowledge contributed by: